Turners, MO (65765)

12:02 AM CDT on August 30, 2015 (GMT -0500)
FOX 5 Springfield | | Change Station
CLOSE
Current Station
Personal Weather Station
Location: Springfield, MO
Elevation: 1358 ft
Nearby Weather Stations

Elev 1358 ft 37.18 °N, 93.25 °W | Updated 1 second ago

Mostly Cloudy
Mostly Cloudy
71.9 °F
Feels Like 70 °F
N
3.0
Wind Variable Wind from ESE
Gusts 4.6 mph

Today
High -- | Low -- °F
--% Chance of Precip.
Yesterday
High -- | Low -- °F
Precip. -- in
6:41 AM 7:44 PM
Full, 100% visible
Pressure 29.99 in
Visibility 10.0 miles
Clouds Few 8000 ft
Heat Index 70 °F
Dew Point 68 °F
Humidity 86%
Rainfall 0.00 in
Snow Depth Not available.
UV 0 out of 12
Pollen 9.60 out of 12
Air Quality Not available.
Flu Activity Not available.
METAR KSGF 300452Z 13005KT 10SM FEW080 21/19 A3002 RMK AO2 SLP153 T02060189
Pressure 29.99 in
Visibility 10.0 miles
Clouds Few 8000 ft
Heat Index 70 °F
Dew Point 68 °F
Humidity 86%
Rainfall 0.00 in
Snow Depth Not available.
UV 0 out of 12
Pollen 9.60 out of 12
Air Quality Not available.
Flu Activity Not available.
METAR KSGF 300452Z 13005KT 10SM FEW080 21/19 A3002 RMK AO2 SLP153 T02060189

10-Day Weather Forecast

×

Almanac

Astronomy

Aug. 30, 2015 Rise Set
Actual Time
Civil Twilight
Nautical Twilight
Astronomical Twilight
Moon
Length of Visible Light
Length of Day
Tomorrow will be .
, % of the Moon is Illuminated

Today's Extremes

State Highs State Lows

Community

WunderPhotos

Upload Photos

1,850,888 photos uploaded!

WunderBlogs® & News

Nearby

Air Quality

  Air Quality AQ Index Pollutant
Not available.

Snow Depth

Station Depth Elevation

Earthquake Activity

City Distance Mag. Time & Date
Minimum magnitude displayed is 2.5.

Coastal Water Temperatures

Place Temperature

Stations

Nearby Weather Stations

Station Location Temp. Windchill Dew Point Humidity Wind Precip. Elev Updated Type